Terminal Aerodrome Forecast
Issued by NWS Rapid City, SD

Home | Current Version | Previous Version | Graphics & Text | Print | Product List | Glossary On
Versions: 1 2 3 4 5 6 7 8 9 10 11 12 13 14 15 16 17
000
FTUS43 KUNR 242300
TAFRAP
TAF
KRAP 242320Z 2500/2524 34014KT P6SM FEW080 BKN120
     FM250500 35018G28KT P6SM BKN120
     FM252000 33016KT P6SM BKN200=

USA.gov is the U.S. government's official web portal to all federal, state and local government web resources and services.